トロムソ の空港の天気 - METARとTAF

トロムソ空港 ( ENTC / TOS ) - ノルウェー トロムス県トロムソ
飛行場実況気象(Metar)
観測時間01/23 06:20 CET (01/23 05:20 UTC)
風向・風速南南東 1m/s
視程10km以上
天気現象
なし
気温-10℃
湿度85%
気圧1012hPa
METARENTC 230520Z 16002KT CAVOK M10/M12 Q1012
過去の天気等 Google飛行場航空写真 Wunderground天気予報

過去48時間のMETAR

飛行場予報(TAF)
発表時間: -
TAF ENTC 2300/2324 20008KT CAVOK